• Join FlightAware (Why Join?)
  • Login
  • US Flag 
11:21AM EST


 

Airport Tracker/Info


-or-


 

Live Flight TrackerFlight Track Log ✈ LBQ870 ✈ 24-Sep-2013 ✈ KIAD - KLZU

Flight Track Log - Related Links

Times and Time Zones

All times are in EDT time to prevent confusion due to time zone crossing. See the LBQ870 flight status page for this flight to view local times or setup timezone preferences in your user account.

Time Position Orientation Groundspeed Altitude Reporting Facility
EDT Latitude Longitude Course Direction KTS MPH feet Rate Location/Type
07:31AM 38.9000 -77.5667 237° Southwest 127 146 4,200  Level Potomac TRACON
07:32AM 38.8833 -77.6167 247° West 138 159 5,000 420 Climbing Potomac TRACON
07:33AM 38.8500 -77.6667 229° Southwest 182 209 5,100 360 Climbing Potomac TRACON
07:34AM 38.8333 -77.7167 247° West 173 199 5,800 600 Climbing Potomac TRACON
07:35AM 38.7553 -77.7374 230° Southwest  Level Estimated
07:35AM 38.8000 -77.7500 218° Southwest 167 192 6,400  Level Potomac TRACON
07:36AM 38.7667 -77.8000 229° Southwest 161 185 7,000 540 Climbing Potomac TRACON
07:37AM 38.7333 -77.8500 229° Southwest 164 189 7,500 480 Climbing Potomac TRACON
07:38AM 38.7000 -77.8833 218° Southwest 163 188 8,000 300 Climbing Potomac TRACON
07:39AM 38.6667 -77.9333 230° Southwest 178 205 8,100  Climbing Potomac TRACON
07:40AM 38.6333 -77.9833 230° Southwest 194 223 8,100  Level Potomac TRACON
07:40AM 38.6000 -78.0333 230° Southwest 194 223 8,100  Level Potomac TRACON
07:41AM 38.5667 -78.0833 230° Southwest 200 230 8,100  Level Potomac TRACON
07:42AM 38.5333 -78.1333 230° Southwest 197 227 8,100  Level Potomac TRACON
07:43AM 38.4833 -78.1833 218° Southwest 198 228 8,100  Level Potomac TRACON
07:44AM 38.4500 -78.2333 230° Southwest 201 231 8,100  Level Potomac TRACON
07:45AM 38.4167 -78.2833 230° Southwest 197 227 8,100 -60 Level Potomac TRACON
07:46AM 38.3833 -78.3333 230° Southwest 196 226 8,000 -60 Descending Potomac TRACON
07:47AM 38.3500 -78.3833 230° Southwest 197 227 8,000  Level Potomac TRACON
07:48AM 38.3000 -78.4500 226° Southwest 198 228 8,100  Climbing Potomac TRACON
07:49AM 38.2667 -78.5000 230° Southwest 200 230 8,100 -60 Level Potomac TRACON
07:50AM 38.2333 -78.5500 230° Southwest 200 230 8,000  Descending Potomac TRACON
07:51AM 38.2000 -78.6000 230° Southwest 200 230 8,100  Climbing Potomac TRACON
07:52AM 38.1500 -78.6500 218° Southwest 201 231 8,000 -60 Descending Potomac TRACON
07:53AM 38.1167 -78.7000 230° Southwest 198 228 8,000  Level Potomac TRACON
07:54AM 38.0833 -78.7500 230° Southwest 199 229 8,000  Level Potomac TRACON
07:55AM 38.0500 -78.8000 230° Southwest 197 227 8,100  Climbing Potomac TRACON
07:56AM 38.0167 -78.8500 230° Southwest 194 223 8,100  Level Potomac TRACON
07:57AM 37.9667 -78.9000 218° Southwest 198 228 8,100  Level Potomac TRACON
07:58AM 37.9333 -78.9500 230° Southwest 197 227 8,100  Level Potomac TRACON
08:00AM 37.8878 -78.9881 213° Southwest  Level FlightAware Approximate
08:07AM 37.6180 -79.2819 229° Southwest  Level FlightAware Approximate
08:08AM 37.5846 -79.3295 229° Southwest  Level FlightAware Approximate
08:09AM 37.5512 -79.3771 229° Southwest  Level FlightAware Approximate
08:10AM 37.5178 -79.4246 228° Southwest  Level FlightAware Approximate
08:11AM 37.4840 -79.4716 227° Southwest  Level FlightAware Approximate
08:12AM 37.4495 -79.5178 227° Southwest  Level FlightAware Approximate
08:13AM 37.4150 -79.5640 227° Southwest  Level FlightAware Approximate
08:14AM 37.3805 -79.6102 227° Southwest  Level FlightAware Approximate
08:15AM 37.3460 -79.6563 227° Southwest  Level FlightAware Approximate
08:16AM 37.3114 -79.7024 227° Southwest  Level FlightAware Approximate
08:17AM 37.2769 -79.7484 227° Southwest  Level FlightAware Approximate
08:18AM 37.2423 -79.7944 227° Southwest  Level FlightAware Approximate
08:19AM 37.2077 -79.8403 227° Southwest  Level FlightAware Approximate
08:20AM 37.1731 -79.8862 227° Southwest  Level FlightAware Approximate
08:21AM 37.1384 -79.9321 227° Southwest  Level FlightAware Approximate
08:22AM 37.1038 -79.9779 227° Southwest  Level FlightAware Approximate
08:23AM 37.0691 -80.0237 227° Southwest  Level FlightAware Approximate
08:24AM 37.0344 -80.0694 226° Southwest  Level FlightAware Approximate
08:24AM 36.9775 -80.2350 250° West 198 228 8,100  Level Atlanta Center
08:25AM 36.9997 -80.1151 226° Southwest  Level FlightAware Approximate
08:25AM 36.9411 -80.2783 224° Southwest 198 228 8,100  Level Atlanta Center
08:26AM 36.9650 -80.1608 226° Southwest  Level FlightAware Approximate
08:26AM 36.9053 -80.3294 229° Southwest 198 228 8,100  Level Atlanta Center
08:27AM 36.9303 -80.2064 226° Southwest  Level FlightAware Approximate
08:27AM 36.8669 -80.3778 225° Southwest 198 228 8,100  Level Atlanta Center
08:28AM 36.9130 -80.2654 250° West  Level FlightAware Approximate
08:28AM 36.8289 -80.4314 228° Southwest 198 228 8,100  Level Atlanta Center
08:29AM 36.7889 -80.4850 227° Southwest 198 228 8,100  Level Atlanta Center
08:30AM 36.7464 -80.5311 221° Southwest 198 228 8,100 -60 Level Atlanta Center
08:31AM 36.7103 -80.5792 227° Southwest 198 228 8,000 -60 Descending Atlanta Center
08:32AM 36.6719 -80.6300 227° Southwest 198 228 8,000  Level Atlanta Center
08:33AM 36.6339 -80.6783 226° Southwest 199 229 8,100  Climbing Atlanta Center
08:34AM 36.5975 -80.7264 227° Southwest 199 229 8,100 -60 Level Atlanta Center
08:35AM 36.5592 -80.7769 227° Southwest 199 229 8,000  Descending Atlanta Center
08:36AM 36.5272 -80.8222 229° Southwest 199 229 8,100  Climbing Atlanta Center
08:37AM 36.4886 -80.8703 225° Southwest 199 229 8,100  Level Atlanta Center
08:38AM 36.4503 -80.9183 225° Southwest 194 223 8,100  Level Atlanta Center
08:39AM 36.4119 -80.9689 227° Southwest 199 229 8,100  Level Atlanta Center
08:40AM 36.3778 -81.0167 228° Southwest 194 223 8,100  Level Atlanta Center
08:41AM 36.3392 -81.0644 225° Southwest 200 230 8,100  Level Atlanta Center
08:42AM 36.3008 -81.1147 227° Southwest 200 230 8,100  Level Atlanta Center
08:43AM 36.2583 -81.1653 224° Southwest 200 230 8,100  Level Atlanta Center
08:44AM 36.2219 -81.2153 228° Southwest 200 230 8,100  Level Atlanta Center
08:45AM 36.1853 -81.2631 226° Southwest 200 230 8,100  Level Atlanta Center
08:46AM 36.1469 -81.3131 226° Southwest 200 230 8,100  Level Atlanta Center
08:47AM 36.1083 -81.3608 225° Southwest 195 224 8,100 -60 Level Atlanta Center
08:48AM 36.0697 -81.4108 226° Southwest 200 230 8,000  Descending Atlanta Center
08:49AM 36.0333 -81.4583 227° Southwest 195 224 8,100  Climbing Atlanta Center
08:50AM 35.9944 -81.5056 224° Southwest 195 224 8,100  Level Atlanta Center
08:51AM 35.9581 -81.5531 227° Southwest 195 224 8,100  Level Atlanta Center
08:52AM 35.9194 -81.6028 226° Southwest 195 224 8,100  Level Atlanta Center
08:53AM 35.8828 -81.6500 226° Southwest 195 224 8,100  Level Atlanta Center
08:54AM 35.8442 -81.6972 225° Southwest 195 224 8,100 -60 Level Atlanta Center
08:55AM 35.8094 -81.7392 224° Southwest 200 230 8,000  Descending Atlanta Center
08:56AM 35.7747 -81.7864 228° Southwest 195 224 8,100  Climbing Atlanta Center
08:57AM 35.7361 -81.8336 225° Southwest 195 224 8,100  Level Atlanta Center
08:58AM 35.6972 -81.8781 223° Southwest 195 224 8,100  Level Atlanta Center
08:59AM 35.6603 -81.9250 226° Southwest 195 224 8,100  Level Atlanta Center
09:00AM 35.6258 -81.9692 226° Southwest 195 224 8,100 -60 Level Atlanta Center
09:01AM 35.5889 -82.0161 226° Southwest 195 224 8,000 -120 Descending Atlanta Center
09:02AM 35.5500 -82.0656 226° Southwest 195 224 7,900 -60 Descending Atlanta Center
09:03AM 35.5092 -82.1203 227° Southwest 210 242 7,900  Level Atlanta Center
09:04AM 35.4725 -82.1644 224° Southwest 194 223 7,900  Level Atlanta Center
09:05AM 35.4333 -82.2086 223° Southwest 205 236 7,900  Level Atlanta Center
09:06AM 35.3964 -82.2553 226° Southwest 190 219 7,900  Level Atlanta Center
09:07AM 35.3639 -82.2992 228° Southwest 190 219 7,900  Level Atlanta Center
09:08AM 35.3269 -82.3433 224° Southwest 193 222 7,900  Level Atlanta Center
09:09AM 35.2858 -82.3925 224° Southwest 188 216 7,900  Level Atlanta Center
09:10AM 35.2531 -82.4339 226° Southwest 196 226 7,900  Level Atlanta Center
09:11AM 35.2158 -82.4778 224° Southwest 194 223 7,900 -60 Level Atlanta Center
09:12AM 35.1750 -82.5294 226° Southwest 187 215 7,800 -60 Descending Atlanta Center
09:13AM 35.1419 -82.5656 222° Southwest 198 228 7,800  Level Atlanta Center
09:14AM 35.1047 -82.6069 222° Southwest 198 228 7,900  Climbing Atlanta Center
09:15AM 35.0678 -82.6506 224° Southwest 188 216 7,900  Level Atlanta Center
09:16AM 35.0328 -82.6944 226° Southwest 182 209 7,900  Level Atlanta Center
09:17AM 35.0000 -82.7381 227° Southwest 182 209 7,900  Level Atlanta Center
09:18AM 34.9628 -82.7867 227° Southwest 182 209 7,900  Level Atlanta Center
09:19AM 34.9278 -82.8253 222° Southwest 182 209 7,900 -60 Level Atlanta Center
09:20AM 34.8886 -82.8689 222° Southwest 177 204 7,800 -60 Descending Atlanta Center
09:21AM 34.8514 -82.9175 227° Southwest 177 204 7,800  Level Atlanta Center
09:22AM 34.8183 -82.9608 227° Southwest 182 209 7,800  Level Atlanta Center
09:23AM 34.7811 -83.0044 224° Southwest 182 209 7,800  Level Atlanta Center
09:24AM 34.7442 -83.0478 224° Southwest 187 215 7,800  Level Atlanta Center
09:25AM 34.7089 -83.0911 225° Southwest 187 215 7,800  Level Atlanta Center
09:26AM 34.6717 -83.1372 226° Southwest 193 222 7,800  Level Atlanta Center
09:27AM 34.6364 -83.1803 225° Southwest 193 222 7,800  Level Atlanta Center
09:28AM 34.5972 -83.2289 226° Southwest 199 229 7,800  Level Atlanta Center
09:29AM 34.5619 -83.2669 222° Southwest 193 222 7,800  Level Atlanta Center
09:30AM 34.5225 -83.3153 225° Southwest 193 222 7,800  Level Atlanta Center
09:31AM 34.4853 -83.3608 225° Southwest 199 229 7,800 -60 Level Atlanta Center
09:32AM 34.4481 -83.4039 224° Southwest 199 229 7,700 -300 Descending Atlanta Center
09:33AM 34.4086 -83.4497 224° Southwest 199 229 7,200 -540 Descending Atlanta Center
09:34AM 34.3711 -83.5003 228° Southwest 192 221 6,700 -540 Descending Atlanta Center
09:35AM 34.3339 -83.5483 227° Southwest 197 227 6,200 -360 Descending Atlanta Center
09:36AM 34.2964 -83.5961 226° Southwest 197 227 6,000 -300 Descending Atlanta Center
09:37AM 34.2528 -83.6367 218° Southwest 197 227 5,700 -420 Descending Atlanta Center
09:38AM 34.2069 -83.6694 211° Southwest 197 227 5,200 -540 Descending Atlanta Center
09:39AM 34.1611 -83.7025 211° Southwest 197 227 4,700 -600 Descending Atlanta Center
09:40AM 34.1153 -83.7328 209° Southwest 197 227 4,000 -720 Descending Atlanta Center
09:41AM 34.0694 -83.7681 213° Southwest 192 221 3,300 -540 Descending Atlanta Center
09:44AM 34.0167 -83.8833 241° Southwest 143 165 2,300 -540 Descending Atlanta TRACON
09:44AM 34.0000 -83.9167 239° Southwest 136 157 1,700 -720 Descending Atlanta TRACON
09:46AM 33.9667 -83.9500 180° South  Level FlightAware Approximate
09:53AM 33.9781 -83.9624 180° South  Level Estimated
09:54AM 33.9781 -83.9624 180° South  Level Estimated